Time;durP1;ratioP1;P1;durP2;ratioP2;P2;SDS_P1;SDS_P2;PMS_P1;PMS_P2;Temp;Humidity;BMP_temperature;BMP_pressure;BME280_temperature;BME280_humidity;BME280_pressure;Samples;Min_cycle;Max_cycle;Signal;HPM_P1;HPM_P2
2021/04/27 00:01:04;;;;;;;;;;;;;;;26.27;27.58;100606.53;5099898;28;779;-42
2021/04/27 00:03:29;;;;;;;;;;;;;;;26.26;27.58;100604.84;5099100;28;1005;-40
2021/04/27 00:05:55;;;;;;;;;;;;;;;26.31;27.72;100604.28;5099692;28;799;-43
2021/04/27 00:08:20;;;;;;;;;;;;;;;26.28;27.63;100599.25;5099658;28;1909;-42
2021/04/27 00:10:46;;;;;;;;;;;;;;;26.33;27.59;100602.28;5099548;28;743;-34
2021/04/27 00:13:11;;;;;;;;;;;;;;;26.37;27.34;100602.78;5115708;28;1202;-42
2021/04/27 00:15:36;;;;;;;;;;;;;;;26.37;27.51;100608.16;5120294;28;739;-37
2021/04/27 00:18:02;;;;;;;;;;;;;;;26.39;27.32;100612.34;5102798;27;957;-42
2021/04/27 00:20:27;;;;;;;;;;;;;;;26.37;27.60;100609.00;5099425;28;763;-37
2021/04/27 00:22:53;;;;;;;;;;;;;;;26.46;27.26;100604.38;5099369;28;908;-42
2021/04/27 00:25:18;;;;;;;;;;;;;;;26.21;27.65;100599.16;5099479;28;779;-42
2021/04/27 00:27:47;;;;;;;;;;;;;;;26.34;27.53;100595.88;5099261;28;847;-42
2021/04/27 00:30:13;;;;;;;;;;;;;;;26.43;27.33;100599.34;5098970;28;1906;-42
2021/04/27 00:32:38;;;;;;;;;;;;;;;26.31;27.58;100601.59;5093616;28;959;-42
2021/04/27 00:35:04;;;;;;;;;;;;;;;26.33;27.29;100604.13;5078505;28;784;-34
2021/04/27 00:37:29;;;;;;;;;;;;;;;26.49;27.34;100603.19;5077240;28;1456;-35
2021/04/27 00:39:54;;;;;;;;;;;;;;;26.39;27.42;100606.94;5078782;28;763;-40
2021/04/27 00:42:32;;;;;;;;;;;;;;;26.37;27.39;100600.91;5078764;28;803;-40
2021/04/27 00:44:57;;;;;;;;;;;;;;;26.51;27.11;100599.25;5078354;28;1207;-36
2021/04/27 00:47:23;;;;;;;;;;;;;;;26.51;27.17;100595.72;5092837;28;1631;-41
2021/04/27 00:49:48;;;;;;;;;;;;;;;26.34;27.41;100586.97;5098821;28;1981;-35
2021/04/27 00:52:14;;;;;;;;;;;;;;;26.50;27.23;100592.19;5098615;28;755;-42
2021/04/27 00:54:39;;;;;;;;;;;;;;;26.46;27.48;100587.38;5099051;28;851;-37
2021/04/27 00:57:04;;;;;;;;;;;;;;;26.41;27.08;100579.78;5098933;28;811;-36
2021/04/27 00:59:30;;;;;;;;;;;;;;;26.52;27.13;100576.69;5095860;28;917;-40
2021/04/27 01:01:55;;;;;;;;;;;;;;;26.62;27.04;100573.72;5098561;28;1013;-43
2021/04/27 01:04:20;;;;;;;;;;;;;;;26.43;27.11;100569.66;5098380;28;779;-42
2021/04/27 01:06:48;;;;;;;;;;;;;;;26.48;27.36;100571.81;5098426;28;870;-39
2021/04/27 01:09:15;;;;;;;;;;;;;;;26.56;27.01;100571.72;5098532;28;1906;-34
2021/04/27 01:11:59;;;;;;;;;;;;;;;26.52;27.30;100571.28;5102134;28;1134;-42
2021/04/27 01:14:30;;;;;;;;;;;;;;;26.51;27.27;100566.03;5118937;28;783;-43
2021/04/27 01:16:56;;;;;;;;;;;;;;;26.47;27.18;100570.16;5111287;28;961;-43
2021/04/27 01:19:26;;;;;;;;;;;;;;;26.53;27.25;100575.66;5097124;28;791;-43
2021/04/27 01:21:52;;;;;;;;;;;;;;;26.52;27.40;100584.78;5097919;28;796;-41
2021/04/27 01:24:29;;;;;;;;;;;;;;;26.56;27.33;100585.22;5098151;28;780;-38
2021/04/27 01:26:55;;;;;;;;;;;;;;;26.50;27.35;100580.56;5096834;28;733;-34
2021/04/27 01:29:22;;;;;;;;;;;;;;;26.39;27.62;100573.75;5097699;28;1902;-43
2021/04/27 01:31:47;;;;;;;;;;;;;;;26.51;27.30;100569.59;5097797;28;1009;-36
2021/04/27 01:34:13;;;;;;;;;;;;;;;26.48;27.32;100575.34;5096302;28;820;-36
2021/04/27 01:36:38;;;;;;;;;;;;;;;26.40;27.50;100578.13;5097697;28;757;-35
2021/04/27 01:39:04;;;;;;;;;;;;;;;26.43;27.45;100579.59;5097843;28;846;-43
2021/04/27 01:41:30;;;;;;;;;;;;;;;26.51;27.49;100591.16;5097803;28;851;-43
2021/04/27 01:43:55;;;;;;;;;;;;;;;26.43;27.34;100595.78;5096432;28;1301;-43
2021/04/27 01:46:20;;;;;;;;;;;;;;;26.53;27.32;100591.00;5094744;28;1602;-42
2021/04/27 01:48:46;;;;;;;;;;;;;;;26.53;27.52;100593.69;5097710;28;1983;-43
2021/04/27 01:51:11;;;;;;;;;;;;;;;26.49;27.31;100595.09;5096476;28;831;-43
2021/04/27 01:53:38;;;;;;;;;;;;;;;26.50;27.25;100597.59;5097346;28;752;-35
2021/04/27 01:56:03;;;;;;;;;;;;;;;26.59;27.30;100590.25;5098010;28;779;-43
2021/04/27 01:58:29;;;;;;;;;;;;;;;26.43;27.43;100585.84;5097902;28;727;-35
2021/04/27 02:00:54;;;;;;;;;;;;;;;26.47;27.62;100575.53;5097388;28;819;-35
2021/04/27 02:03:19;;;;;;;;;;;;;;;26.49;27.47;100582.41;5096673;28;950;-36
2021/04/27 02:05:45;;;;;;;;;;;;;;;26.52;27.37;100568.59;5097486;28;755;-41
2021/04/27 02:08:10;;;;;;;;;;;;;;;26.48;27.55;100571.81;5097192;28;814;-40
2021/04/27 02:10:35;;;;;;;;;;;;;;;26.47;27.64;100572.84;5097076;28;1901;-42
2021/04/27 02:13:05;;;;;;;;;;;;;;;26.60;27.36;100564.13;5112099;28;1130;-41
2021/04/27 02:15:31;;;;;;;;;;;;;;;26.48;27.77;100559.16;5116602;28;729;-35
2021/04/27 02:17:57;;;;;;;;;;;;;;;26.47;27.46;100554.81;5101602;28;953;-37
2021/04/27 02:20:25;;;;;;;;;;;;;;;26.47;27.87;100554.81;5096227;28;798;-41
2021/04/27 02:22:51;;;;;;;;;;;;;;;26.43;27.76;100564.28;5097270;28;787;-42
2021/04/27 02:25:16;;;;;;;;;;;;;;;26.49;27.66;100565.41;5097280;28;786;-36
2021/04/27 02:27:41;;;;;;;;;;;;;;;26.48;27.92;100561.88;5095794;28;839;-37
2021/04/27 02:30:07;;;;;;;;;;;;;;;26.43;27.97;100566.13;5097070;28;1965;-35
2021/04/27 02:32:32;;;;;;;;;;;;;;;26.47;27.73;100556.66;5096942;28;1014;-41
2021/04/27 02:34:58;;;;;;;;;;;;;;;26.50;27.75;100559.84;5096712;28;807;-41
2021/04/27 02:37:23;;;;;;;;;;;;;;;26.43;27.74;100558.88;5097061;28;755;-34
2021/04/27 02:39:48;;;;;;;;;;;;;;;26.50;27.70;100557.13;5096956;28;771;-35
2021/04/27 02:42:13;;;;;;;;;;;;;;;26.47;27.73;100562.06;5096909;28;902;-41
2021/04/27 02:44:39;;;;;;;;;;;;;;;26.37;28.04;100556.91;5096788;28;1319;-42
2021/04/27 02:47:05;;;;;;;;;;;;;;;26.51;27.79;100571.44;5095581;28;1645;-36
2021/04/27 02:49:30;;;;;;;;;;;;;;;26.50;27.78;100567.09;5096970;28;1913;-34
2021/04/27 02:51:55;;;;;;;;;;;;;;;26.38;27.89;100562.13;5096941;28;833;-35
2021/04/27 02:54:20;;;;;;;;;;;;;;;26.50;27.80;100567.94;5096690;28;759;-39
2021/04/27 02:56:46;;;;;;;;;;;;;;;26.49;27.49;100573.50;5096838;28;763;-39
2021/04/27 02:59:11;;;;;;;;;;;;;;;25.35;26.63;100573.88;5097177;28;775;-38
2021/04/27 03:01:37;;;;;;;;;;;;;;;24.83;27.47;100576.88;5095765;28;962;-39
2021/04/27 03:04:03;;;;;;;;;;;;;;;24.46;27.93;100571.06;5096717;28;779;-38
2021/04/27 03:06:28;;;;;;;;;;;;;;;24.06;28.78;100573.53;5096763;28;767;-39
2021/04/27 03:08:53;;;;;;;;;;;;;;;23.71;29.29;100580.88;5096467;28;1902;-37
2021/04/27 03:11:18;;;;;;;;;;;;;;;23.56;29.04;100580.66;5097237;28;1189;-39
2021/04/27 03:13:44;;;;;;;;;;;;;;;23.24;30.11;100574.97;5116975;28;759;-37
2021/04/27 03:16:09;;;;;;;;;;;;;;;23.12;30.24;100574.44;5116831;28;843;-37
2021/04/27 03:18:34;;;;;;;;;;;;;;;23.04;30.52;100575.22;5095879;28;945;-38
2021/04/27 03:21:00;;;;;;;;;;;;;;;22.94;30.33;100567.28;5096674;28;823;-38
2021/04/27 03:23:25;;;;;;;;;;;;;;;22.48;30.70;100572.81;5099858;28;858;-40
2021/04/27 03:25:50;;;;;;;;;;;;;;;22.18;30.04;100569.56;5100531;28;790;-40
2021/04/27 03:28:16;;;;;;;;;;;;;;;22.51;29.03;100562.63;5100372;28;902;-39
2021/04/27 03:30:41;;;;;;;;;;;;;;;22.53;29.99;100561.63;5100200;28;1905;-39
2021/04/27 03:33:06;;;;;;;;;;;;;;;22.17;29.74;100579.44;5099748;28;981;-37
2021/04/27 03:35:32;;;;;;;;;;;;;;;22.36;30.29;100583.78;5100222;28;794;-38
2021/04/27 03:37:57;;;;;;;;;;;;;;;22.31;30.28;100583.41;5100554;28;767;-40
2021/04/27 03:40:22;;;;;;;;;;;;;;;22.26;30.29;100586.56;5100256;28;846;-39
2021/04/27 03:42:47;;;;;;;;;;;;;;;21.66;29.94;100587.94;5100321;28;775;-39
2021/04/27 03:45:14;;;;;;;;;;;;;;;22.02;29.80;100596.03;5099895;28;1381;-39
2021/04/27 03:47:40;;;;;;;;;;;;;;;22.04;29.71;100597.75;5098429;28;1747;-39
2021/04/27 03:50:05;;;;;;;;;;;;;;;21.90;30.29;100605.31;5099971;28;1989;-39
2021/04/27 03:52:31;;;;;;;;;;;;;;;22.01;30.14;100614.94;5092374;28;1538;-39
2021/04/27 03:54:56;;;;;;;;;;;;;;;21.93;30.52;100607.69;5083426;28;894;-38
2021/04/27 03:57:21;;;;;;;;;;;;;;;22.44;30.01;100603.63;5108122;28;907;-45
2021/04/27 03:59:46;;;;;;;;;;;;;;;22.96;28.68;100600.16;5110626;28;839;-37
2021/04/27 04:02:12;;;;;;;;;;;;;;;23.18;28.77;100600.63;5099384;28;1009;-41
2021/04/27 04:04:37;;;;;;;;;;;;;;;23.33;28.56;100594.63;5099142;28;820;-42
2021/04/27 04:07:02;;;;;;;;;;;;;;;23.39;28.53;100587.78;5100094;28;822;-45
2021/04/27 04:09:28;;;;;;;;;;;;;;;23.36;28.13;100586.25;5099607;28;1898;-40
2021/04/27 04:11:53;;;;;;;;;;;;;;;23.52;28.34;100580.16;5104908;28;1102;-39
2021/04/27 04:14:18;;;;;;;;;;;;;;;23.73;28.18;100587.78;5119855;28;910;-42
2021/04/27 04:16:43;;;;;;;;;;;;;;;23.84;28.31;100593.81;5112659;28;866;-42
2021/04/27 04:19:09;;;;;;;;;;;;;;;24.09;27.99;100583.97;5098797;28;831;-41
2021/04/27 04:21:34;;;;;;;;;;;;;;;24.16;27.75;100591.34;5099256;28;760;-42
2021/04/27 04:23:59;;;;;;;;;;;;;;;24.30;27.58;100581.81;5097212;28;866;-41
2021/04/27 04:26:25;;;;;;;;;;;;;;;24.39;27.35;100588.03;5097645;28;953;-41
2021/04/27 04:28:50;;;;;;;;;;;;;;;24.39;27.18;100579.97;5098726;28;1968;-42
2021/04/27 04:31:15;;;;;;;;;;;;;;;24.49;26.88;100577.94;5098389;28;938;-40
2021/04/27 04:33:41;;;;;;;;;;;;;;;24.57;26.93;100577.94;5098170;28;935;-45
2021/04/27 04:36:06;;;;;;;;;;;;;;;24.62;26.92;100571.22;5111432;28;871;-43
2021/04/27 04:38:31;;;;;;;;;;;;;;;24.69;26.65;100572.22;5117937;28;848;-40
2021/04/27 04:40:57;;;;;;;;;;;;;;;24.74;26.59;100574.38;5119247;28;877;-43
2021/04/27 04:43:22;;;;;;;;;;;;;;;24.78;26.59;100573.88;5118615;28;771;-41
2021/04/27 04:45:47;;;;;;;;;;;;;;;24.78;26.49;100575.72;5116464;28;1498;-40
2021/04/27 04:48:12;;;;;;;;;;;;;;;24.81;26.45;100567.28;5096773;28;1027;-41
2021/04/27 04:50:38;;;;;;;;;;;;;;;24.90;26.07;100565.44;5098650;28;1913;-44
2021/04/27 04:53:03;;;;;;;;;;;;;;;24.90;25.95;100562.75;5098055;28;846;-44
2021/04/27 04:55:29;;;;;;;;;;;;;;;24.90;26.45;100557.34;5098145;28;1188;-35
2021/04/27 04:57:54;;;;;;;;;;;;;;;24.89;26.15;100569.97;5098471;28;767;-40
2021/04/27 05:00:19;;;;;;;;;;;;;;;25.00;25.97;100563.41;5098668;28;702;-36
2021/04/27 05:02:45;;;;;;;;;;;;;;;24.94;25.67;100556.88;5098510;28;990;-41
2021/04/27 05:05:11;;;;;;;;;;;;;;;24.92;25.72;100556.19;5098202;28;847;-36
2021/04/27 05:07:42;;;;;;;;;;;;;;;24.90;25.51;100557.34;5098437;28;782;-37
2021/04/27 05:10:08;;;;;;;;;;;;;;;25.04;25.82;100551.28;5098583;28;1906;-37
2021/04/27 05:12:34;;;;;;;;;;;;;;;24.96;26.09;100563.94;5109496;28;1122;-37
2021/04/27 05:14:59;;;;;;;;;;;;;;;24.96;26.00;100558.56;5114586;28;1230;-41
2021/04/27 05:17:24;;;;;;;;;;;;;;;25.15;26.04;100557.31;5097486;28;945;-43
2021/04/27 05:19:50;;;;;;;;;;;;;;;25.27;26.00;100565.84;5096786;28;807;-33
2021/04/27 05:22:15;;;;;;;;;;;;;;;25.27;25.96;100553.22;5096308;28;880;-32
2021/04/27 05:24:40;;;;;;;;;;;;;;;25.16;26.13;100553.59;5098214;28;815;-42
2021/04/27 05:27:06;;;;;;;;;;;;;;;25.15;25.97;100552.78;5098186;28;834;-44
2021/04/27 05:29:31;;;;;;;;;;;;;;;25.02;25.99;100553.31;5097684;28;1898;-41
2021/04/27 05:31:56;;;;;;;;;;;;;;;25.15;25.66;100557.31;5100674;28;800;-40
2021/04/27 05:34:22;;;;;;;;;;;;;;;25.02;25.72;100564.09;5097679;28;736;-44
2021/04/27 05:36:47;;;;;;;;;;;;;;;25.17;25.56;100571.44;5097783;28;759;-40
2021/04/27 05:39:12;;;;;;;;;;;;;;;25.22;25.69;100574.44;5098182;28;795;-43
2021/04/27 05:41:38;;;;;;;;;;;;;;;25.17;25.75;100574.94;5097632;28;799;-40
2021/04/27 05:44:03;;;;;;;;;;;;;;;25.24;25.63;100567.00;5096823;28;1160;-44
2021/04/27 05:46:29;;;;;;;;;;;;;;;25.30;25.35;100565.50;5095755;28;1585;-34
2021/04/27 05:48:54;;;;;;;;;;;;;;;25.34;25.08;100566.81;5097455;28;1968;-41
2021/04/27 05:51:19;;;;;;;;;;;;;;;25.32;24.84;100563.47;5097944;28;886;-34
2021/04/27 05:53:44;;;;;;;;;;;;;;;25.30;24.72;100569.03;5097511;28;771;-34
2021/04/27 05:56:10;;;;;;;;;;;;;;;25.22;24.85;100566.38;5097121;28;794;-40
2021/04/27 05:58:35;;;;;;;;;;;;;;;25.07;25.04;100568.94;5093930;28;871;-39
2021/04/27 06:01:00;;;;;;;;;;;;;;;24.95;25.03;100571.16;5093209;28;852;-38
2021/04/27 06:03:26;;;;;;;;;;;;;;;24.90;25.20;100569.00;5096816;28;1190;-40
2021/04/27 06:05:51;;;;;;;;;;;;;;;24.99;25.37;100564.41;5097114;28;760;-42
2021/04/27 06:08:16;;;;;;;;;;;;;;;25.07;25.16;100559.00;5097061;28;882;-40
2021/04/27 06:10:41;;;;;;;;;;;;;;;24.99;25.79;100561.72;5096890;28;1906;-38
2021/04/27 06:13:07;;;;;;;;;;;;;;;24.92;25.67;100561.56;5087370;28;1192;-36
2021/04/27 06:15:32;;;;;;;;;;;;;;;24.92;25.91;100566.97;5076677;28;820;-41
2021/04/27 06:17:57;;;;;;;;;;;;;;;24.92;26.52;100568.81;5090028;28;934;-35
2021/04/27 06:20:23;;;;;;;;;;;;;;;24.88;26.59;100562.91;5096931;28;823;-38
2021/04/27 06:22:48;;;;;;;;;;;;;;;24.85;26.53;100571.34;5096405;28;772;-39
2021/04/27 06:25:13;;;;;;;;;;;;;;;24.85;26.33;100570.47;5096710;28;788;-38
2021/04/27 06:27:39;;;;;;;;;;;;;;;24.95;26.56;100579.25;5096964;28;850;-38
2021/04/27 06:30:05;;;;;;;;;;;;;;;24.93;26.44;100589.34;5096867;28;1977;-36
2021/04/27 06:32:30;;;;;;;;;;;;;;;25.19;26.14;100597.16;5091059;28;1383;-34
2021/04/27 06:34:55;;;;;;;;;;;;;;;25.24;26.30;100591.25;5076332;28;779;-41
2021/04/27 06:37:21;;;;;;;;;;;;;;;25.21;26.75;100585.41;5076351;28;799;-41
2021/04/27 06:39:46;;;;;;;;;;;;;;;25.12;27.39;100587.25;5076454;28;748;-38
2021/04/27 06:42:12;;;;;;;;;;;;;;;24.99;28.49;100593.19;5076433;28;826;-39
2021/04/27 06:44:37;;;;;;;;;;;;;;;24.94;29.07;100597.22;5076093;28;1190;-34
2021/04/27 06:47:03;;;;;;;;;;;;;;;24.85;29.43;100594.69;5087538;28;1582;-39
2021/04/27 06:49:29;;;;;;;;;;;;;;;24.84;29.80;100599.22;5094859;28;1914;-39
2021/04/27 06:51:54;;;;;;;;;;;;;;;24.87;29.80;100598.91;5096398;28;823;-41
2021/04/27 06:54:19;;;;;;;;;;;;;;;24.93;29.40;100595.56;5096441;28;799;-44
2021/04/27 06:56:45;;;;;;;;;;;;;;;24.91;29.58;100591.34;5097349;28;799;-43
2021/04/27 06:59:12;;;;;;;;;;;;;;;25.16;29.18;100573.28;5100522;28;803;-44
2021/04/27 07:01:38;;;;;;;;;;;;;;;25.41;29.01;100583.94;5100064;28;934;-32
2021/04/27 07:04:03;;;;;;;;;;;;;;;25.43;28.75;100590.00;5099195;28;781;-42
2021/04/27 07:06:28;;;;;;;;;;;;;;;25.45;28.84;100581.75;5100471;28;760;-36
2021/04/27 07:08:54;;;;;;;;;;;;;;;25.57;28.42;100584.88;5100286;28;1966;-41
2021/04/27 07:11:19;;;;;;;;;;;;;;;25.59;28.54;100584.72;5100591;28;1019;-35
2021/04/27 07:13:44;;;;;;;;;;;;;;;25.61;28.62;100585.38;5121004;28;807;-43
2021/04/27 07:16:10;;;;;;;;;;;;;;;25.66;28.64;100588.38;5120608;28;526;-33
2021/04/27 07:18:35;;;;;;;;;;;;;;;25.61;28.72;100578.13;5098676;28;957;-43
2021/04/27 07:21:00;;;;;;;;;;;;;;;25.79;28.38;100574.38;5100351;28;875;-48
2021/04/27 07:23:26;;;;;;;;;;;;;;;25.88;28.45;100573.28;5098771;28;896;-45
2021/04/27 07:25:51;;;;;;;;;;;;;;;25.92;28.33;100573.75;5100161;28;791;-40
2021/04/27 07:28:16;;;;;;;;;;;;;;;25.79;28.60;100579.75;5100071;28;827;-40
2021/04/27 07:30:41;;;;;;;;;;;;;;;25.79;28.54;100582.44;5099848;28;1906;-41
2021/04/27 07:33:07;;;;;;;;;;;;;;;25.90;28.41;100576.63;5099545;28;1013;-36
2021/04/27 07:35:32;;;;;;;;;;;;;;;25.84;28.67;100568.44;5099788;28;884;-35
2021/04/27 07:38:01;;;;;;;;;;;;;;;25.84;28.54;100563.03;5100073;28;792;-38
2021/04/27 07:40:27;;;;;;;;;;;;;;;25.72;28.85;100560.75;5099644;28;797;-44
2021/04/27 07:42:52;;;;;;;;;;;;;;;25.89;28.56;100566.84;5099920;28;801;-44
2021/04/27 07:45:17;;;;;;;;;;;;;;;26.04;28.41;100568.78;5099606;28;1257;-41
2021/04/27 07:47:43;;;;;;;;;;;;;;;25.94;28.50;100565.50;5098110;28;1681;-43
2021/04/27 07:50:08;;;;;;;;;;;;;;;25.94;28.62;100560.97;5099690;28;1994;-35
2021/04/27 07:52:34;;;;;;;;;;;;;;;25.93;28.45;100556.56;5098652;28;1173;-41
2021/04/27 07:55:00;;;;;;;;;;;;;;;26.06;28.45;100557.84;5083726;28;1193;-44
2021/04/27 07:57:25;;;;;;;;;;;;;;;25.82;28.79;100560.53;5079385;28;775;-43
2021/04/27 07:59:50;;;;;;;;;;;;;;;25.96;28.66;100558.91;5079112;28;799;-36
2021/04/27 08:02:16;;;;;;;;;;;;;;;25.97;28.57;100552.50;5087763;28;1017;-42
2021/04/27 08:04:41;;;;;;;;;;;;;;;25.93;28.80;100559.25;5099028;28;833;-38
2021/04/27 08:07:07;;;;;;;;;;;;;;;25.91;28.88;100555.91;5098639;28;779;-33
2021/04/27 08:09:32;;;;;;;;;;;;;;;25.96;28.63;100558.91;5098588;28;1905;-43
2021/04/27 08:11:57;;;;;;;;;;;;;;;25.94;28.86;100558.25;5104917;28;1090;-34
2021/04/27 08:14:23;;;;;;;;;;;;;;;26.15;28.43;100554.88;5118845;28;811;-38
2021/04/27 08:16:48;;;;;;;;;;;;;;;26.23;28.23;100555.81;5112429;28;929;-36
2021/04/27 08:19:13;;;;;;;;;;;;;;;26.21;28.47;100553.31;5099161;28;823;-41
2021/04/27 08:21:39;;;;;;;;;;;;;;;26.22;28.30;100546.91;5098662;28;838;-42
2021/04/27 08:24:05;;;;;;;;;;;;;;;26.11;28.62;100542.78;5099440;28;741;-42
2021/04/27 08:26:30;;;;;;;;;;;;;;;26.00;28.92;100548.59;5098855;28;814;-43
2021/04/27 08:28:55;;;;;;;;;;;;;;;26.04;28.94;100541.84;5098858;28;1967;-42
2021/04/27 08:31:20;;;;;;;;;;;;;;;26.05;28.82;100535.41;5098362;28;922;-43
2021/04/27 08:33:46;;;;;;;;;;;;;;;26.26;28.68;100537.44;5099073;28;751;-44
2021/04/27 08:36:11;;;;;;;;;;;;;;;26.32;28.39;100543.97;5098775;28;859;-43
2021/04/27 08:38:36;;;;;;;;;;;;;;;26.25;28.51;100540.31;5098560;28;827;-40
2021/04/27 08:41:02;;;;;;;;;;;;;;;26.22;28.63;100555.00;5098888;28;798;-41
2021/04/27 08:43:27;;;;;;;;;;;;;;;26.16;28.89;100553.84;5098344;28;819;-36
2021/04/27 08:45:53;;;;;;;;;;;;;;;26.16;28.89;100548.47;5098620;28;1764;-40
2021/04/27 08:48:18;;;;;;;;;;;;;;;26.35;28.85;100549.00;5098073;28;957;-33
2021/04/27 08:50:43;;;;;;;;;;;;;;;26.42;28.70;100549.13;5098549;28;1902;-35
2021/04/27 08:53:09;;;;;;;;;;;;;;;26.35;28.60;100543.63;5098856;28;905;-36
2021/04/27 08:55:34;;;;;;;;;;;;;;;26.20;28.95;100540.84;5098399;28;740;-40
2021/04/27 08:58:00;;;;;;;;;;;;;;;26.21;29.18;100547.91;5098415;28;799;-39
2021/04/27 09:00:25;;;;;;;;;;;;;;;26.36;28.79;100545.28;5098119;28;820;-44
2021/04/27 09:02:54;;;;;;;;;;;;;;;26.43;28.95;100541.84;5097716;28;938;-42
2021/04/27 09:05:20;;;;;;;;;;;;;;;26.41;29.20;100537.50;5097939;28;820;-36
2021/04/27 09:07:47;;;;;;;;;;;;;;;26.52;29.04;100530.81;5098292;28;751;-39
2021/04/27 09:10:13;;;;;;;;;;;;;;;26.55;28.86;100529.59;5097917;28;1893;-38
2021/04/27 09:12:45;;;;;;;;;;;;;;;26.51;28.95;100521.03;5109791;28;1126;-34
2021/04/27 09:15:10;;;;;;;;;;;;;;;26.52;28.90;100524.59;5118921;28;740;-44
2021/04/27 09:17:36;;;;;;;;;;;;;;;26.73;28.90;100526.53;5097296;28;1150;-40
2021/04/27 09:20:01;;;;;;;;;;;;;;;26.77;28.75;100532.41;5087876;28;938;-42
2021/04/27 09:22:33;;;;;;;;;;;;;;;26.71;28.79;100536.69;5097672;28;832;-38
2021/04/27 09:25:03;;;;;;;;;;;;;;;26.69;28.81;100529.81;5097507;28;824;-34
2021/04/27 09:27:32;;;;;;;;;;;;;;;26.71;28.74;100535.84;5097658;28;810;-34
2021/04/27 09:29:59;;;;;;;;;;;;;;;26.60;28.81;100532.59;5097255;28;1976;-40
2021/04/27 09:32:34;;;;;;;;;;;;;;;26.58;29.13;100526.53;5095649;28;824;-34
2021/04/27 09:35:20;;;;;;;;;;;;;;;26.61;28.98;100523.47;5097078;28;824;-43
2021/04/27 09:38:04;;;;;;;;;;;;;;;26.50;29.22;100510.44;5097165;28;856;-40
2021/04/27 09:40:29;;;;;;;;;;;;;;;26.59;29.10;100519.28;5097385;28;801;-42
2021/04/27 09:43:03;;;;;;;;;;;;;;;26.62;29.00;100519.75;5097070;28;852;-46
2021/04/27 09:45:37;;;;;;;;;;;;;;;26.70;28.89;100499.09;5096768;28;1277;-43
2021/04/27 09:48:02;;;;;;;;;;;;;;;26.67;28.82;100497.63;5094548;28;867;-42
2021/04/27 09:50:28;;;;;;;;;;;;;;;26.70;28.96;100496.38;5097133;28;1909;-43
2021/04/27 09:52:53;;;;;;;;;;;;;;;26.72;28.80;100491.66;5096653;28;864;-45
2021/04/27 09:55:20;;;;;;;;;;;;;;;26.67;29.11;100494.06;5097280;28;808;-40
2021/04/27 09:57:49;;;;;;;;;;;;;;;26.63;29.23;100507.09;5096886;28;870;-44
2021/04/27 10:00:28;;;;;;;;;;;;;;;26.78;28.83;100512.47;5095479;28;1160;-35
2021/04/27 10:02:57;;;;;;;;;;;;;;;26.78;28.76;100507.09;5096205;28;870;-43
2021/04/27 10:05:22;;;;;;;;;;;;;;;26.68;28.97;100495.72;5096694;28;797;-41
2021/04/27 10:07:48;;;;;;;;;;;;;;;26.59;29.04;100509.31;5096531;28;888;-40
2021/04/27 10:10:14;;;;;;;;;;;;;;;26.39;29.65;100496.38;5096680;28;1972;-36
2021/04/27 10:12:39;;;;;;;;;;;;;;;26.31;29.59;100490.22;5100251;28;1078;-44
2021/04/27 10:15:05;;;;;;;;;;;;;;;26.26;29.86;100488.91;5096405;28;848;-43
2021/04/27 10:17:31;;;;;;;;;;;;;;;26.28;29.90;100477.91;5094785;28;871;-42
2021/04/27 10:19:56;;;;;;;;;;;;;;;26.21;29.84;100475.13;5091800;28;809;-41
2021/04/27 10:22:21;;;;;;;;;;;;;;;26.22;30.08;100474.13;5075682;28;1319;-38
2021/04/27 10:24:47;;;;;;;;;;;;;;;26.27;29.93;100471.72;5096733;28;1178;-41
2021/04/27 10:27:12;;;;;;;;;;;;;;;26.23;30.10;100470.38;5096404;28;850;-42
2021/04/27 10:29:37;;;;;;;;;;;;;;;26.20;30.05;100469.91;5095115;28;1947;-40
2021/04/27 10:32:16;;;;;;;;;;;;;;;26.21;30.24;100468.91;5095932;28;1051;-41
2021/04/27 10:35:01;;;;;;;;;;;;;;;26.15;30.54;100459.69;5095980;28;827;-41
2021/04/27 10:37:29;;;;;;;;;;;;;;;26.22;30.13;100466.03;5089220;28;1872;-37
2021/04/27 10:39:54;;;;;;;;;;;;;;;26.28;30.08;100459.03;5096704;28;782;-36
2021/04/27 10:42:19;;;;;;;;;;;;;;;26.40;30.16;100448.69;5094989;28;804;-39
2021/04/27 10:44:51;;;;;;;;;;;;;;;26.43;30.12;100452.84;5096473;28;1039;-38
2021/04/27 10:47:17;;;;;;;;;;;;;;;26.55;29.93;100450.53;5095052;28;1763;-35
2021/04/27 10:49:42;;;;;;;;;;;;;;;26.42;29.89;100449.34;5096330;28;1937;-42
2021/04/27 10:52:24;;;;;;;;;;;;;;;26.49;30.00;100458.34;5095928;28;875;-34
2021/04/27 10:54:49;;;;;;;;;;;;;;;26.56;29.45;100452.22;5096133;28;826;-36
2021/04/27 10:57:15;;;;;;;;;;;;;;;26.50;29.37;100446.53;5094381;28;848;-40
2021/04/27 10:59:59;;;;;;;;;;;;;;;26.55;29.67;100445.13;5095739;28;940;-40
2021/04/27 11:02:31;;;;;;;;;;;;;;;26.35;29.81;100446.53;5094797;28;1176;-44
2021/04/27 11:05:19;;;;;;;;;;;;;;;26.44;29.69;100441.91;5096283;28;820;-36
2021/04/27 11:07:46;;;;;;;;;;;;;;;26.64;29.72;100439.44;5095987;28;2052;-46
2021/04/27 11:10:17;;;;;;;;;;;;;;;26.62;29.46;100437.97;5095515;28;1910;-42
2021/04/27 11:12:46;;;;;;;;;;;;;;;26.71;29.79;100436.84;5102505;28;888;-37
2021/04/27 11:15:12;;;;;;;;;;;;;;;26.50;28.57;100438.44;5095252;28;878;-37
2021/04/27 11:17:39;;;;;;;;;;;;;;;26.51;27.70;100431.19;5095105;28;834;-37
2021/04/27 11:20:05;;;;;;;;;;;;;;;26.39;27.52;100417.34;5095512;28;875;-35
2021/04/27 11:22:32;;;;;;;;;;;;;;;26.40;27.10;100427.94;5095276;28;881;-35
2021/04/27 11:24:58;;;;;;;;;;;;;;;26.35;26.87;100419.56;5096332;28;871;-35
2021/04/27 11:27:32;;;;;;;;;;;;;;;26.41;27.27;100417.97;5095843;28;852;-37
2021/04/27 11:30:07;;;;;;;;;;;;;;;26.48;27.07;100415.38;5095480;28;1910;-35
2021/04/27 11:32:33;;;;;;;;;;;;;;;26.38;26.70;100413.81;5095142;28;800;-35
2021/04/27 11:35:00;;;;;;;;;;;;;;;26.39;26.59;100403.88;5095663;28;875;-33
2021/04/27 11:37:35;;;;;;;;;;;;;;;26.50;26.46;100402.53;5095490;28;815;-34
2021/04/27 11:40:19;;;;;;;;;;;;;;;26.44;26.32;100406.84;5088722;28;1252;-41
2021/04/27 11:42:44;;;;;;;;;;;;;;;26.44;26.54;100414.94;5096226;28;803;-40
2021/04/27 11:45:10;;;;;;;;;;;;;;;26.47;26.32;100409.16;5100902;28;1136;-42
2021/04/27 11:47:37;;;;;;;;;;;;;;;26.43;26.25;100405.16;5097991;28;1605;-38
2021/04/27 11:50:02;;;;;;;;;;;;;;;26.49;25.84;100408.97;5099158;28;1909;-44
2021/04/27 11:52:36;;;;;;;;;;;;;;;26.48;25.93;100399.19;5099106;28;820;-36
2021/04/27 11:55:03;;;;;;;;;;;;;;;26.38;26.05;100394.94;5100117;28;771;-42
2021/04/27 11:57:28;;;;;;;;;;;;;;;26.44;26.04;100403.31;5111342;28;1150;-42
2021/04/27 12:00:00;;;;;;;;;;;;;;;26.41;26.03;100397.25;5105624;28;851;-32
2021/04/27 12:02:29;;;;;;;;;;;;;;;26.43;25.68;100390.81;5098454;28;808;-36
2021/04/27 12:04:54;;;;;;;;;;;;;;;26.47;26.06;100392.97;5094139;28;867;-36
2021/04/27 12:07:24;;;;;;;;;;;;;;;26.45;25.85;100386.94;5096428;28;860;-35
2021/04/27 12:09:50;;;;;;;;;;;;;;;26.46;25.89;100387.78;5098924;28;1910;-34
2021/04/27 12:12:18;;;;;;;;;;;;;;;26.59;26.11;100393.31;5094277;28;1211;-42
2021/04/27 12:14:50;;;;;;;;;;;;;;;26.51;25.45;100382.63;5099008;28;827;-35
2021/04/27 12:17:31;;;;;;;;;;;;;;;26.43;25.86;100380.88;5097948;28;824;-37
2021/04/27 12:20:02;;;;;;;;;;;;;;;25.99;27.32;100380.66;5098408;28;915;-39
2021/04/27 12:22:27;;;;;;;;;;;;;;;26.44;25.56;100385.25;5098294;28;820;-38
2021/04/27 12:24:52;;;;;;;;;;;;;;;26.36;25.06;100377.28;5098040;28;867;-42
2021/04/27 12:27:20;;;;;;;;;;;;;;;26.40;25.72;100381.25;5098518;28;859;-42
2021/04/27 12:29:49;;;;;;;;;;;;;;;26.41;25.61;100378.38;5097492;28;1905;-43
2021/04/27 12:32:19;;;;;;;;;;;;;;;26.49;25.48;100377.41;5090147;28;867;-36
2021/04/27 12:34:54;;;;;;;;;;;;;;;26.50;25.12;100367.47;5098657;28;1177;-45
2021/04/27 12:37:19;;;;;;;;;;;;;;;26.34;25.44;100373.91;5098311;28;932;-40
2021/04/27 12:39:44;;;;;;;;;;;;;;;26.33;25.46;100372.22;5098464;28;808;-45
2021/04/27 12:42:26;;;;;;;;;;;;;;;26.44;26.00;100373.63;5098486;28;855;-37
2021/04/27 12:44:57;;;;;;;;;;;;;;;26.68;26.27;100374.31;5098326;28;1283;-37
2021/04/27 12:47:22;;;;;;;;;;;;;;;26.79;25.98;100384.66;5084649;28;1421;-40
2021/04/27 12:50:01;;;;;;;;;;;;;;;26.78;26.14;100382.97;5098315;28;1909;-35